Rockland, Massachusetts
Current Conditions -  °F | °C
As of 4:55 AM on Tuesday 27 Jan 2015 (Local Time) from KGHG Reporting Station
Moderate Snow Moderate Snow  
Wind Chill: 14°   Ceiling: 100
Heat Index: 28°   Visibility: 0.25mi
Dew Point: 27°   Wind: 25mph
Humidity: 93%   Direction: 10°N
Pressure: 29.52"   Gusts: 41mph
Location:  42.13°N, 70.92°W
Report Text: KGHG 270955Z AUTO 01022G36KT 020V360 1/4SM SN OVC001 M02/M03 A2952 RMK AO2 P0002
Loading
Personal Weather Stations






























Interactive Weather Map New forecast layout! Learn more

10-Day Weather Forecast

Advertisements
Track Severe Weather on mobile